EPWR/WRO METAR and TAF weather

Enter ICAO airport designator
Station Type Date Time Source
EPWR METAR 2022/06/29 01:30 UTC NOAA

EPWR 290130Z 06006KT 9999 BKN035 19/16 Q1018


Station Type Date Time Source
EPWR Decoded METAR 2022/06/29 01:30 UTC NOAA

Wroclaw Ii, Poland (EPWR) 51-06N 016-53E 121M
Jun 28, 2022 - 09:30 PM EDT / 2022.06.29 0130 UTC
Wind: from the ENE (060 degrees) at 7 MPH (6 KT):0
Visibility: greater than 7 mile(s):0
Sky conditions: mostly cloudy
Temperature: 66 F (19 C)
Dew Point: 60 F (16 C)
Relative Humidity: 82%
Pressure (altimeter): 30.06 in. Hg (1018 hPa)
ob: EPWR 290130Z 06006KT 9999 BKN035 19/16 Q1018
cycle: 1

Station Type Date Time Source
EPWR TAF 2022/06/28 21:37 UTC NOAA

TAF EPWR 282030Z 2821/2921 04005KT CAVOK
TEMPO 2900/2915 3000 SHRA BKN007 BKN014CB PROB30
TEMPO 2900/2915 TSRA

Example: see airport list